createdAt,value
2023-04-19T00:00:27.829Z,75.25
2023-04-19T00:03:07.058Z,75.92
2023-04-19T00:05:45.636Z,76.09
2023-04-19T00:08:23.491Z,78.30
2023-04-19T00:11:01.204Z,77.95
2023-04-19T00:13:43.936Z,78.49
2023-04-19T00:16:22.272Z,78.02
2023-04-19T00:18:58.193Z,77.78
2023-04-19T00:21:39.758Z,78.64
2023-04-19T00:24:18.045Z,78.78
2023-04-19T00:27:03.848Z,82.04
2023-04-19T00:29:47.165Z,80.32
2023-04-19T00:32:23.703Z,80.59
2023-04-19T00:35:01.581Z,81.58
2023-04-19T00:37:45.120Z,83.26
2023-04-19T00:40:27.958Z,83.09
2023-04-19T00:43:05.892Z,85.15
2023-04-19T00:45:38.474Z,84.75
2023-04-19T00:48:22.740Z,83.66
2023-04-19T00:50:55.602Z,78.45
2023-04-19T00:53:41.085Z,75.76
2023-04-19T00:56:09.675Z,73.37
2023-04-19T00:58:45.680Z,73.37
2023-04-19T01:01:25.429Z,72.80
2023-04-19T01:04:03.566Z,70.76
2023-04-19T01:06:43.675Z,69.22
2023-04-19T01:09:19.242Z,69.71
2023-04-19T01:12:03.581Z,70.02
2023-04-19T01:14:39.634Z,68.70
2023-04-19T01:17:14.722Z,68.50
2023-04-19T01:20:01.039Z,67.41
2023-04-19T01:22:40.786Z,67.81
2023-04-19T01:25:21.665Z,66.17
2023-04-19T01:28:00.033Z,65.52
2023-04-19T01:30:36.002Z,66.38
2023-04-19T01:33:12.073Z,65.76
2023-04-19T01:35:50.634Z,68.38
2023-04-19T01:38:33.384Z,71.31
2023-04-19T01:41:09.124Z,73.17
2023-04-19T01:43:41.970Z,73.78
2023-04-19T01:46:28.476Z,72.59
2023-04-19T01:49:03.673Z,74.27
2023-04-19T01:51:44.520Z,75.70
2023-04-19T01:54:28.363Z,76.19
2023-04-19T01:57:01.240Z,75.74
2023-04-19T01:59:40.592Z,73.96
2023-04-19T02:02:15.793Z,74.35
2023-04-19T02:04:44.220Z,74.14
2023-04-19T02:07:22.098Z,73.46
2023-04-19T02:10:06.148Z,73.73
2023-04-19T02:12:43.745Z,74.34
2023-04-19T02:15:24.467Z,74.41
2023-04-19T02:18:07.701Z,74.38
2023-04-19T02:20:46.945Z,73.31
2023-04-19T02:23:21.902Z,73.34
2023-04-19T02:25:56.259Z,74.79
2023-04-19T02:28:38.277Z,74.62
2023-04-19T02:31:16.069Z,75.75
2023-04-19T02:33:49.399Z,76.01
2023-04-19T02:36:25.039Z,76.12
2023-04-19T02:38:54.295Z,76.42
2023-04-19T02:41:29.122Z,76.34
2023-04-19T02:44:06.071Z,78.12
2023-04-19T02:46:43.225Z,76.73
2023-04-19T02:49:21.520Z,75.96
2023-04-19T02:52:00.620Z,75.63
2023-04-19T02:54:30.519Z,74.97
2023-04-19T02:57:11.746Z,76.51
2023-04-19T02:59:54.654Z,77.13
2023-04-19T03:02:40.964Z,78.11
2023-04-19T03:05:19.087Z,76.25
2023-04-19T03:08:01.206Z,76.97
2023-04-19T03:10:42.489Z,77.62
2023-04-19T03:13:27.102Z,72.94
2023-04-19T03:15:59.877Z,70.82
2023-04-19T03:18:48.066Z,71.29
2023-04-19T03:21:29.215Z,70.62
2023-04-19T03:24:11.518Z,71.81
2023-04-19T03:27:05.569Z,72.56
2023-04-19T03:29:41.023Z,72.08
2023-04-19T03:32:22.113Z,73.55
2023-04-19T03:35:01.128Z,73.81
2023-04-19T03:37:39.768Z,76.15
2023-04-19T03:40:12.821Z,76.75
2023-04-19T03:42:47.579Z,79.90
2023-04-19T03:45:42.370Z,79.87
2023-04-19T03:48:20.727Z,80.28
2023-04-19T03:51:02.060Z,81.17
2023-04-19T03:53:45.939Z,81.25
2023-04-19T03:56:24.355Z,82.56
2023-04-19T03:59:06.480Z,84.08
2023-04-19T04:01:48.586Z,84.57
2023-04-19T04:04:27.374Z,85.43
2023-04-19T04:07:03.406Z,87.77
2023-04-19T04:09:46.947Z,92.44
2023-04-19T04:12:24.168Z,92.89
2023-04-19T04:14:59.464Z,93.80
2023-04-19T04:17:40.125Z,93.43
2023-04-19T04:20:21.148Z,92.83
2023-04-19T04:22:58.645Z,92.76
2023-04-19T04:25:39.592Z,93.28
2023-04-19T04:28:26.820Z,93.79
2023-04-19T04:31:06.714Z,94.53
2023-04-19T04:33:42.946Z,97.67
2023-04-19T04:36:18.825Z,98.71
2023-04-19T04:38:54.612Z,99.52
2023-04-19T04:41:31.663Z,100.00
2023-04-19T04:44:12.899Z,100.00
2023-04-19T04:47:03.285Z,100.00
2023-04-19T04:49:41.129Z,100.00
2023-04-19T04:52:18.602Z,96.24
2023-04-19T04:55:03.738Z,90.15
2023-04-19T04:57:45.732Z,89.88
2023-04-19T05:00:24.631Z,87.67
2023-04-19T05:03:12.192Z,86.05
2023-04-19T05:05:50.730Z,85.65
2023-04-19T05:08:23.568Z,84.35
2023-04-19T05:11:03.707Z,84.42
2023-04-19T05:13:47.153Z,84.62
2023-04-19T05:16:26.710Z,84.16
2023-04-19T05:19:04.925Z,84.51
2023-04-19T05:21:44.965Z,86.63
2023-04-19T05:24:24.626Z,86.44
2023-04-19T05:26:59.873Z,84.29
2023-04-19T05:29:41.479Z,82.15
2023-04-19T05:32:13.605Z,82.16
2023-04-19T05:35:01.498Z,79.43
2023-04-19T05:37:36.720Z,78.87
2023-04-19T05:40:15.617Z,78.00
2023-04-19T05:42:59.886Z,73.37
2023-04-19T05:45:43.116Z,73.86
2023-04-19T05:48:24.118Z,71.60
2023-04-19T05:51:24.849Z,71.35
2023-04-19T05:54:14.634Z,70.95
2023-04-19T05:56:53.465Z,69.82
2023-04-19T05:59:34.157Z,68.73
2023-04-19T06:02:16.755Z,70.54
2023-04-19T06:04:49.663Z,69.49
2023-04-19T06:07:31.835Z,68.52
2023-04-19T06:10:15.708Z,68.13
2023-04-19T06:12:45.371Z,67.37
2023-04-19T06:15:25.976Z,65.81
2023-04-19T06:18:08.984Z,62.58
2023-04-19T06:20:47.746Z,62.82
2023-04-19T06:23:27.148Z,64.21
2023-04-19T06:26:10.296Z,62.07
2023-04-19T06:28:46.632Z,61.83
2023-04-19T06:31:27.530Z,59.07
2023-04-19T06:34:11.382Z,58.05
2023-04-19T06:36:52.611Z,60.53
2023-04-19T06:39:37.236Z,55.65
2023-04-19T06:42:20.983Z,57.17
2023-04-19T06:45:01.508Z,55.99
2023-04-19T06:47:48.685Z,53.35
2023-04-19T06:50:21.554Z,55.08
2023-04-19T06:52:56.977Z,50.56
2023-04-19T06:55:43.592Z,51.82
2023-04-19T06:58:27.246Z,48.36
2023-04-19T07:01:05.450Z,49.43
2023-04-19T07:03:41.982Z,46.59
2023-04-19T07:06:20.546Z,45.45
2023-04-19T07:08:53.635Z,47.18
2023-04-19T07:11:29.584Z,47.40
2023-04-19T07:14:10.755Z,47.30
2023-04-19T07:16:51.636Z,45.27
2023-04-19T07:19:33.563Z,47.25
2023-04-19T07:22:15.245Z,45.45
2023-04-19T07:24:59.064Z,46.79
2023-04-19T07:27:37.265Z,45.29
2023-04-19T07:30:18.088Z,42.66
2023-04-19T07:32:59.473Z,44.05
2023-04-19T07:35:35.525Z,43.54
2023-04-19T07:38:17.383Z,44.92
2023-04-19T07:40:58.313Z,44.45
2023-04-19T07:43:39.270Z,43.49
2023-04-19T07:46:19.246Z,43.37
2023-04-19T07:49:03.052Z,43.06
2023-04-19T07:51:35.553Z,46.47
2023-04-19T07:54:16.418Z,47.43
2023-04-19T07:56:59.165Z,45.17
2023-04-19T07:59:42.737Z,44.50
2023-04-19T08:02:19.293Z,43.33
2023-04-19T08:04:49.997Z,41.75
2023-04-19T08:07:28.468Z,41.61
2023-04-19T08:10:12.130Z,42.11
2023-04-19T08:13:05.052Z,40.53
2023-04-19T08:18:25.471Z,42.02
2023-04-19T08:21:12.206Z,42.68
2023-04-19T08:23:48.262Z,39.86
2023-04-19T08:26:24.186Z,39.22
2023-04-19T08:29:15.323Z,37.54
2023-04-19T08:31:53.698Z,38.85
2023-04-19T08:34:45.488Z,38.92
2023-04-19T08:37:27.038Z,38.66
2023-04-19T08:40:08.727Z,39.99
2023-04-19T08:42:49.884Z,39.55
2023-04-19T08:45:29.364Z,42.50
2023-04-19T08:48:10.418Z,39.72
2023-04-19T08:51:00.607Z,38.65
2023-04-19T08:53:46.618Z,40.78
2023-04-19T08:56:34.791Z,37.50
2023-04-19T08:59:20.499Z,38.96
2023-04-19T09:02:06.725Z,37.42
2023-04-19T09:04:53.754Z,38.72
2023-04-19T09:07:32.806Z,37.43
2023-04-19T09:10:26.039Z,38.78
2023-04-19T09:13:13.850Z,36.01
2023-04-19T09:15:54.666Z,36.89
2023-04-19T09:18:42.551Z,36.87
2023-04-19T09:21:40.969Z,36.92
2023-04-19T09:24:16.780Z,36.35
2023-04-19T09:26:54.859Z,38.14
2023-04-19T09:29:33.290Z,35.46
2023-04-19T09:32:14.362Z,36.79
2023-04-19T09:35:05.663Z,36.93
2023-04-19T09:38:02.128Z,40.11
2023-04-19T09:40:41.138Z,37.37
2023-04-19T09:43:45.205Z,37.13
2023-04-19T09:46:36.282Z,35.13
2023-04-19T09:49:33.734Z,34.67
2023-04-19T09:52:16.597Z,36.35
2023-04-19T09:54:53.227Z,37.69
2023-04-19T09:57:31.235Z,39.30
2023-04-19T10:00:15.787Z,41.88
2023-04-19T10:02:54.812Z,40.96
2023-04-19T10:05:41.781Z,37.93
2023-04-19T10:08:17.641Z,37.67
2023-04-19T10:10:56.915Z,37.99
2023-04-19T10:13:30.357Z,36.10
2023-04-19T10:16:15.524Z,35.42
2023-04-19T10:18:55.335Z,37.67
2023-04-19T10:21:39.578Z,34.23
2023-04-19T10:24:20.565Z,36.40
2023-04-19T10:27:13.274Z,33.80
2023-04-19T10:30:07.387Z,31.10
2023-04-19T10:32:43.549Z,34.95
2023-04-19T10:35:34.970Z,33.04
2023-04-19T10:38:16.334Z,33.51
2023-04-19T10:41:00.736Z,32.78
2023-04-19T10:43:42.425Z,30.17
2023-04-19T10:46:30.029Z,30.95
2023-04-19T10:49:13.747Z,32.16
2023-04-19T10:51:55.067Z,33.04
2023-04-19T10:54:36.538Z,33.85
2023-04-19T10:57:16.216Z,31.11
2023-04-19T11:00:31.595Z,33.61
2023-04-19T11:03:36.932Z,30.56
2023-04-19T11:07:01.671Z,30.65
2023-04-19T11:09:48.420Z,37.38
2023-04-19T11:12:27.772Z,39.75
2023-04-19T11:15:11.964Z,38.99
2023-04-19T11:17:42.820Z,40.22
2023-04-19T11:20:26.656Z,40.38
2023-04-19T11:23:04.342Z,43.43
2023-04-19T11:25:42.572Z,43.89
2023-04-19T11:28:21.741Z,44.26
2023-04-19T11:30:59.884Z,44.97
2023-04-19T11:33:50.223Z,44.75
2023-04-19T11:36:29.702Z,43.54
2023-04-19T11:39:07.676Z,42.48
2023-04-19T11:41:47.501Z,43.58
2023-04-19T11:44:34.397Z,42.80
2023-04-19T11:47:15.174Z,46.52
2023-04-19T11:50:25.285Z,42.59
2023-04-19T11:52:57.645Z,42.87
2023-04-19T11:55:44.832Z,43.10
2023-04-19T11:58:55.270Z,45.02
2023-04-19T12:01:40.076Z,44.20
2023-04-19T12:04:23.694Z,43.27
2023-04-19T12:07:01.764Z,43.55
2023-04-19T12:09:38.982Z,43.44
2023-04-19T12:12:34.966Z,43.95
2023-04-19T12:15:15.629Z,42.39
2023-04-19T12:18:12.865Z,42.83
2023-04-19T12:20:59.498Z,43.58
2023-04-19T12:23:45.112Z,46.50
2023-04-19T12:26:31.408Z,48.54
2023-04-19T12:29:12.822Z,45.47
2023-04-19T12:31:58.913Z,42.88
2023-04-19T12:34:36.734Z,43.23
2023-04-19T12:37:12.169Z,43.81
2023-04-19T12:39:50.513Z,45.53
2023-04-19T12:42:29.012Z,43.55
2023-04-19T12:45:06.691Z,40.59
2023-04-19T12:47:50.223Z,44.37
2023-04-19T12:50:34.538Z,43.69
2023-04-19T12:53:09.715Z,44.27
2023-04-19T12:55:49.810Z,44.01
2023-04-19T12:58:36.064Z,43.15
2023-04-19T13:01:12.773Z,43.12
2023-04-19T13:03:50.365Z,41.97
2023-04-19T13:06:28.591Z,40.77
2023-04-19T13:11:58.667Z,41.78
2023-04-19T13:14:36.350Z,42.27
2023-04-19T13:17:13.069Z,44.20
2023-04-19T13:19:53.648Z,42.80
2023-04-19T13:22:32.541Z,42.94
2023-04-19T13:25:10.764Z,44.24
2023-04-19T13:27:47.605Z,47.24
2023-04-19T13:30:26.058Z,45.60
2023-04-19T13:33:01.585Z,46.52
2023-04-19T13:35:45.570Z,46.36
2023-04-19T13:38:18.963Z,47.31
2023-04-19T13:40:57.090Z,49.84
2023-04-19T13:43:35.067Z,48.75
2023-04-19T13:46:12.465Z,47.87
2023-04-19T13:48:56.581Z,46.25
2023-04-19T13:51:46.249Z,48.48
2023-04-19T13:54:25.487Z,45.62
2023-04-19T13:57:06.292Z,46.20
2023-04-19T13:59:43.770Z,44.36
2023-04-19T14:02:21.566Z,41.10
2023-04-19T14:04:59.125Z,42.33
2023-04-19T14:07:34.582Z,42.33
2023-04-19T14:10:12.277Z,40.01
2023-04-19T14:12:58.558Z,36.99
2023-04-19T14:15:33.224Z,37.08
2023-04-19T14:18:17.008Z,37.61
2023-04-19T14:20:55.208Z,37.44
2023-04-19T14:23:28.008Z,40.07
2023-04-19T14:26:03.390Z,46.18
2023-04-19T14:28:38.549Z,50.50
2023-04-19T14:31:21.750Z,53.37
2023-04-19T14:34:00.045Z,54.67
2023-04-19T14:36:44.069Z,59.01
2023-04-19T14:39:22.590Z,64.72
2023-04-19T14:42:00.720Z,67.04
2023-04-19T14:44:43.958Z,68.73
2023-04-19T14:47:19.253Z,67.75
2023-04-19T14:50:00.601Z,69.39
2023-04-19T14:52:41.603Z,67.89
2023-04-19T14:55:28.577Z,69.96
2023-04-19T14:58:10.352Z,69.99
2023-04-19T15:00:45.753Z,71.68
2023-04-19T15:03:27.378Z,74.28
2023-04-19T15:06:00.937Z,75.13
2023-04-19T15:08:38.567Z,75.75
2023-04-19T15:11:10.623Z,74.95
2023-04-19T15:13:46.575Z,76.74
2023-04-19T15:16:29.450Z,77.01
2023-04-19T15:19:07.685Z,75.06
2023-04-19T15:21:48.741Z,77.46
2023-04-19T15:24:21.412Z,79.27
2023-04-19T15:27:04.751Z,83.92
2023-04-19T15:29:41.428Z,85.28
2023-04-19T15:32:30.564Z,87.92
2023-04-19T15:35:06.144Z,89.80
2023-04-19T15:37:46.887Z,90.89
2023-04-19T15:40:50.226Z,89.95
2023-04-19T15:43:42.581Z,88.77
2023-04-19T15:46:16.919Z,88.81
2023-04-19T15:48:58.143Z,88.48
2023-04-19T15:51:39.166Z,87.71
2023-04-19T15:54:25.142Z,87.40
2023-04-19T15:57:09.585Z,84.22
2023-04-19T15:59:44.947Z,86.64
2023-04-19T16:02:33.603Z,85.37
2023-04-19T16:05:17.800Z,82.71
2023-04-19T16:08:07.312Z,82.74
2023-04-19T16:10:45.638Z,83.98
2023-04-19T16:13:25.865Z,87.00
2023-04-19T16:16:01.544Z,78.69
2023-04-19T16:18:37.047Z,72.98
2023-04-19T16:21:12.234Z,67.09
2023-04-19T16:23:53.749Z,63.21
2023-04-19T16:26:31.389Z,58.56
2023-04-19T16:29:09.557Z,58.02
2023-04-19T16:31:52.247Z,58.19
2023-04-19T16:34:30.648Z,60.89
2023-04-19T16:37:06.564Z,63.76
2023-04-19T16:39:33.465Z,71.03
2023-04-19T16:42:10.554Z,73.45
2023-04-19T16:44:56.151Z,75.43
2023-04-19T16:47:37.614Z,77.90
2023-04-19T16:50:23.356Z,79.09
2023-04-19T16:53:04.143Z,80.53
2023-04-19T16:55:41.796Z,80.84
2023-04-19T16:58:18.910Z,81.94
2023-04-19T17:01:02.816Z,82.52
2023-04-19T17:03:44.542Z,82.18
2023-04-19T17:06:25.279Z,82.91
2023-04-19T17:09:01.416Z,84.07
2023-04-19T17:11:42.613Z,87.37
2023-04-19T17:14:17.973Z,88.16
2023-04-19T17:17:05.362Z,88.56
2023-04-19T17:19:40.480Z,89.48
2023-04-19T17:22:18.636Z,89.25
2023-04-19T17:24:51.477Z,88.44
2023-04-19T17:27:33.682Z,91.27
2023-04-19T17:30:12.652Z,91.82
2023-04-19T17:32:56.444Z,92.19
2023-04-19T17:35:39.704Z,93.03
2023-04-19T17:38:17.457Z,92.41
2023-04-19T17:41:03.626Z,93.25
2023-04-19T17:43:38.850Z,94.62
2023-04-19T17:46:19.638Z,95.30
2023-04-19T17:49:00.252Z,95.89
2023-04-19T17:51:42.335Z,97.05
2023-04-19T17:54:16.024Z,97.87
2023-04-19T17:56:46.296Z,99.94
2023-04-19T17:59:23.910Z,100.00
2023-04-19T18:01:59.980Z,100.00
2023-04-19T18:04:51.258Z,100.00
2023-04-19T18:07:34.040Z,100.00
2023-04-19T18:10:09.551Z,100.00
2023-04-19T18:13:13.441Z,100.00
2023-04-19T18:15:49.612Z,100.00
2023-04-19T18:18:31.829Z,100.00
2023-04-19T18:21:19.123Z,100.00
2023-04-19T18:23:57.410Z,100.00
2023-04-19T18:26:42.568Z,100.00
2023-04-19T18:29:22.040Z,100.00
2023-04-19T18:31:55.395Z,100.00
2023-04-19T18:34:42.750Z,100.00
2023-04-19T18:37:22.847Z,100.00
2023-04-19T18:40:07.460Z,100.00
2023-04-19T18:42:39.200Z,100.00
2023-04-19T18:45:17.428Z,100.00
2023-04-19T18:48:03.758Z,100.00
2023-04-19T18:50:40.621Z,100.00
2023-04-19T18:53:24.468Z,100.00
2023-04-19T18:56:00.549Z,100.00
2023-04-19T18:58:37.602Z,100.00
2023-04-19T19:01:18.602Z,100.00
2023-04-19T19:04:21.178Z,100.00
2023-04-19T19:06:58.354Z,100.00
2023-04-19T19:09:55.246Z,100.00
2023-04-19T19:12:37.672Z,100.00
2023-04-19T19:15:14.555Z,100.00
2023-04-19T19:17:50.576Z,100.00
2023-04-19T19:20:31.542Z,100.00
2023-04-19T19:23:07.198Z,100.00
2023-04-19T19:25:47.857Z,100.00
2023-04-19T19:28:22.589Z,100.00
2023-04-19T19:30:58.001Z,100.00
2023-04-19T19:33:40.815Z,100.00
2023-04-19T19:36:13.981Z,100.00
2023-04-19T19:39:01.091Z,100.00
2023-04-19T19:42:04.313Z,100.00
2023-04-19T19:44:29.542Z,100.00
2023-04-19T19:47:13.299Z,100.00
2023-04-19T19:50:32.030Z,100.00
2023-04-19T19:52:51.018Z,100.00
2023-04-19T19:55:24.711Z,100.00
2023-04-19T20:00:47.964Z,100.00
2023-04-19T20:03:36.879Z,100.00
2023-04-19T20:08:51.446Z,100.00
2023-04-19T20:11:32.111Z,100.00
2023-04-19T20:14:10.995Z,100.00
2023-04-19T20:16:46.421Z,100.00
2023-04-19T20:19:25.045Z,100.00
2023-04-19T20:22:03.343Z,100.00
2023-04-19T20:24:45.836Z,100.00
2023-04-19T20:27:22.048Z,100.00
2023-04-19T20:30:00.931Z,100.00
2023-04-19T20:32:36.679Z,100.00
2023-04-19T20:35:14.586Z,100.00
2023-04-19T20:38:02.680Z,100.00
2023-04-19T20:40:44.276Z,100.00
2023-04-19T20:43:25.617Z,100.00
2023-04-19T20:46:02.002Z,100.00
2023-04-19T20:48:36.847Z,100.00
2023-04-19T20:51:20.683Z,100.00
2023-04-19T20:53:55.981Z,100.00
2023-04-19T20:56:35.566Z,100.00
2023-04-19T20:59:13.730Z,100.00
2023-04-19T21:01:56.977Z,100.00
2023-04-19T21:04:34.918Z,100.00
2023-04-19T21:07:19.565Z,100.00
2023-04-19T21:09:55.890Z,100.00
2023-04-19T21:12:31.255Z,100.00
2023-04-19T21:15:24.909Z,100.00
2023-04-19T21:18:06.630Z,100.00
2023-04-19T21:20:42.651Z,100.00
2023-04-19T21:23:28.189Z,100.00
2023-04-19T21:26:04.637Z,100.00
2023-04-19T21:28:43.972Z,100.00
2023-04-19T21:31:27.168Z,100.00
2023-04-19T21:34:03.559Z,100.00
2023-04-19T21:36:44.550Z,100.00
2023-04-19T21:39:14.138Z,100.00
2023-04-19T21:41:52.566Z,100.00
2023-04-19T21:44:30.556Z,100.00
2023-04-19T21:47:08.212Z,100.00
2023-04-19T21:49:38.685Z,100.00
2023-04-19T21:52:14.087Z,100.00
2023-04-19T21:54:52.886Z,100.00
2023-04-19T21:57:31.727Z,100.00
2023-04-19T22:00:05.341Z,100.00
2023-04-19T22:02:42.046Z,100.00
2023-04-19T22:05:20.809Z,100.00
2023-04-19T22:07:59.030Z,100.00
2023-04-19T22:10:33.660Z,100.00
2023-04-19T22:13:14.542Z,100.00
2023-04-19T22:15:47.535Z,100.00
2023-04-19T22:18:25.871Z,100.00
2023-04-19T22:21:00.501Z,100.00
2023-04-19T22:23:43.665Z,100.00
2023-04-19T22:26:21.427Z,100.00
2023-04-19T22:29:01.757Z,100.00
2023-04-19T22:31:45.500Z,100.00
2023-04-19T22:34:23.439Z,100.00
2023-04-19T22:37:07.576Z,100.00
2023-04-19T22:39:47.943Z,100.00
2023-04-19T22:42:18.632Z,100.00
2023-04-19T22:44:54.536Z,100.00
2023-04-19T22:47:33.730Z,100.00
2023-04-19T22:50:14.387Z,100.00
2023-04-19T22:52:55.566Z,100.00
2023-04-19T22:55:39.572Z,100.00
2023-04-19T22:58:19.881Z,100.00
2023-04-19T23:00:57.547Z,100.00
2023-04-19T23:03:35.991Z,100.00
2023-04-19T23:06:14.770Z,100.00
2023-04-19T23:08:53.557Z,100.00
2023-04-19T23:11:35.549Z,100.00
2023-04-19T23:14:13.597Z,100.00
2023-04-19T23:16:57.230Z,100.00
2023-04-19T23:19:33.464Z,100.00
2023-04-19T23:22:17.734Z,100.00
2023-04-19T23:25:03.612Z,100.00
2023-04-19T23:27:49.838Z,100.00
2023-04-19T23:30:22.768Z,100.00
2023-04-19T23:33:01.851Z,100.00
2023-04-19T23:35:42.954Z,100.00
2023-04-19T23:38:20.916Z,100.00
2023-04-19T23:40:58.594Z,100.00
2023-04-19T23:43:46.513Z,100.00
2023-04-19T23:46:24.662Z,100.00
2023-04-19T23:49:07.508Z,100.00
2023-04-19T23:51:45.448Z,100.00
2023-04-19T23:54:28.194Z,100.00
2023-04-19T23:56:58.826Z,100.00
2023-04-19T23:59:33.275Z,100.00
